Lalla Fatma N'soumer — C6TT8 — position and weather

sailwx.info

Track history (hours):
 
Tides and Currents Weather Stations Pressure Air Temp Water Temp Dewpoint Dewpoint Depression Visibility Wind Speed Wind Dir Waves Ship Positions

Lalla Fatma N'soumer

Last reported at 2017-Oct-22 01:32 UTC. Time now 2017-Oct-23 00:38 UTC.
Position N 35°52' W 000°14'.

Length 292 m; draft 9.7 m.

Type: Ship (hazmat cat D). MMSI: 311775000.

Date/timePositionNaut miles runAvg speedWind from/ knotsBaromVisibWave heightAir tempDewpointWater temp
2017-Oct-22 01:32N 35°52' W 000°14'0 0.0
2017-Oct-22 01:26N 35°52' W 000°14'0 0.1
2017-Oct-22 00:58N 35°52' W 000°14'0 0.0
2017-Oct-21 21:25N 35°52' W 000°14'0 0.0
2017-Oct-21 20:50N 35°52' W 000°14'0 0.0
2017-Oct-21 20:20N 35°52' W 000°14'0 0.1
2017-Oct-21 19:59N 35°52' W 000°14'0 0.1
2017-Oct-21 19:20N 35°52' W 000°14'0 0.1
2017-Oct-21 18:56N 35°52' W 000°14'0 0.0
2017-Oct-21 18:22N 35°52' W 000°14'0 0.0
2017-Oct-21 17:56N 35°52' W 000°14'0 0.1
2017-Oct-21 14:38N 35°52' W 000°14'0 0.0
2017-Oct-21 14:13N 35°52' W 000°14'5 0.5
2017-Oct-21 05:27N 35°56' W 000°11'397 7.9
2017-Oct-19 02:56N 41°48' E 003°48'613.1
2017-Oct-19 02:30N 41°52' E 003°52'612.5
2017-Oct-19 02:01N 41°57' E 003°57'712.8
2017-Oct-19 01:29N 42°02' E 004°03'1612.9
2017-Oct-19 00:14N 42°15' E 004°16'413.1
2017-Oct-18 23:57N 42°18' E 004°19'613.3
2017-Oct-18 23:30N 42°23' E 004°24'713.1
2017-Oct-18 22:58N 42°28' E 004°30'713.2
2017-Oct-18 22:27N 42°34' E 004°35'613.5
2017-Oct-18 21:59N 42°39' E 004°40'713.4
2017-Oct-18 21:29N 42°44' E 004°45'613.3
2017-Oct-18 21:00N 42°50' E 004°50'713.5
2017-Oct-18 20:30N 42°55' E 004°56'612.1
2017-Oct-18 20:01N 43°00' E 004°60'611.8
2017-Oct-18 19:30N 43°06' E 005°00'611.5
2017-Oct-18 19:00N 43°12' E 005°00'611.3
2017-Oct-18 18:31N 43°17' E 004°59'5 9.5
2017-Oct-18 18:00N 43°22' E 004°57'3 5.1
2017-Oct-18 17:31N 43°24' E 004°55'1 2.5
2017-Oct-18 16:58N 43°25' E 004°54'0 0.0
2017-Oct-18 16:25N 43°25' E 004°54'0 0.0
2017-Oct-18 15:58N 43°25' E 004°54'0 0.0
2017-Oct-18 15:28N 43°25' E 004°54'0 0.0
2017-Oct-18 14:58N 43°25' E 004°54'0 0.0
2017-Oct-18 13:58N 43°25' E 004°54'0 0.0
2017-Oct-18 13:28N 43°25' E 004°54'0 0.0
2017-Oct-18 12:58N 43°25' E 004°54'0 0.0
2017-Oct-18 12:25N 43°25' E 004°54'0 0.0
2017-Oct-18 11:58N 43°25' E 004°54'0 0.0
2017-Oct-18 11:28N 43°25' E 004°54'0 0.0
2017-Oct-18 10:55N 43°25' E 004°54'0 0.0
2017-Oct-18 10:28N 43°25' E 004°54'0 0.0
2017-Oct-18 09:58N 43°25' E 004°54'0 0.0
2017-Oct-18 09:25N 43°25' E 004°54'0 0.0
2017-Oct-18 08:58N 43°25' E 004°54'0 0.0
2017-Oct-18 08:28N 43°25' E 004°54'0 0.0
2017-Oct-18 07:58N 43°25' E 004°54'0 0.0
2017-Oct-18 07:28N 43°25' E 004°54'0 0.0
2017-Oct-18 06:58N 43°25' E 004°54'0 0.0
2017-Oct-18 06:28N 43°25' E 004°54'0 0.0
2017-Oct-18 05:58N 43°25' E 004°54'0 0.0
2017-Oct-18 05:28N 43°25' E 004°54'0 0.0
2017-Oct-18 04:58N 43°25' E 004°54'0 0.0
2017-Oct-18 04:25N 43°25' E 004°54'0 0.0
2017-Oct-18 03:58N 43°25' E 004°54'0 0.0
2017-Oct-18 03:28N 43°25' E 004°54'0 0.0
2017-Oct-18 02:58N 43°25' E 004°54'0 0.0
2017-Oct-18 02:25N 43°25' E 004°54'0 0.0
2017-Oct-18 01:58N 43°25' E 004°54'0 0.0
2017-Oct-18 01:28N 43°25' E 004°54'0 0.0
2017-Oct-18 00:58N 43°25' E 004°54'0 0.0
2017-Oct-18 00:28N 43°25' E 004°54'0 0.0
2017-Oct-17 23:58N 43°25' E 004°54'0 0.0
2017-Oct-17 23:25N 43°25' E 004°54'0 0.0
2017-Oct-17 22:52N 43°25' E 004°54'0 0.0
2017-Oct-17 22:28N 43°25' E 004°54'0 0.0
2017-Oct-17 21:58N 43°25' E 004°54'0 0.0
2017-Oct-17 21:25N 43°25' E 004°54'0 0.0
2017-Oct-17 20:55N 43°25' E 004°54'0 0.0
2017-Oct-17 20:22N 43°25' E 004°54'0 0.0
2017-Oct-17 19:58N 43°25' E 004°54'0 0.0
2017-Oct-17 19:28N 43°25' E 004°54'0 0.0
2017-Oct-17 18:58N 43°25' E 004°54'0 0.0
2017-Oct-17 18:19N 43°25' E 004°54'0 0.0
2017-Oct-17 18:00N 43°25' E 004°54'0 0.0
2017-Oct-17 17:30N 43°25' E 004°54'0 0.7
2017-Oct-17 17:00N 43°25' E 004°54'2 3.9
2017-Oct-17 16:30N 43°23' E 004°56'4 8.5
2017-Oct-17 16:00N 43°20' E 004°59'3 6.1
2017-Oct-17 15:30N 43°17' E 005°00'3 7.0
2017-Oct-17 15:01N 43°14' E 005°02'4 7.1
2017-Oct-17 14:30N 43°10' E 005°03'3 5.4
2017-Oct-17 14:00N 43°08' E 005°02'3 6.4
2017-Oct-17 13:30N 43°04' E 005°02'3 6.6
2017-Oct-17 13:00N 43°01' E 005°02'3 7.0
2017-Oct-17 12:30N 42°58' E 004°60'4 7.2
2017-Oct-17 12:00N 42°55' E 004°57'4 7.2
2017-Oct-17 11:30N 42°52' E 004°54'4 7.1
2017-Oct-17 11:00N 42°50' E 004°51'4 7.5
2017-Oct-17 10:30N 42°47' E 004°48'4 7.7
2017-Oct-17 10:00N 42°44' E 004°44'5 7.6
2017-Oct-17 09:19N 42°40' E 004°40'2 7.6
2017-Oct-17 09:00N 42°38' E 004°38'4 7.6
2017-Oct-17 08:29N 42°34' E 004°35'4 7.8
2017-Oct-17 08:00N 42°31' E 004°32'4 7.7
2017-Oct-17 07:27N 42°28' E 004°29'4 7.7
2017-Oct-17 06:59N 42°25' E 004°26'13 7.7
2017-Oct-17 05:22N 42°15' E 004°16'5 7.8
2017-Oct-17 04:44N 42°11' E 004°11'2 7.8
2017-Oct-17 04:25N 42°09' E 004°09'12 7.9
2017-Oct-17 02:54N 41°60' E 003°60'7 8.1
2017-Oct-17 01:59N 41°54' E 003°54'10 8.0
2017-Oct-17 00:42N 41°45' E 003°46'29010.4
2017-Oct-15 20:43N 37°38' E 000°29'315.0
2017-Oct-15 20:29N 37°35' E 000°27'715.2
2017-Oct-15 20:00N 37°28' E 000°24'715.0
2017-Oct-15 19:30N 37°21' E 000°21'714.6
2017-Oct-15 19:00N 37°14' E 000°18'714.6
2017-Oct-15 18:30N 37°07' E 000°15'714.4
2017-Oct-15 18:01N 37°00' E 000°13'714.2
2017-Oct-15 17:30N 36°53' E 000°11'713.9
2017-Oct-15 17:01N 36°47' E 000°08'713.9
2017-Oct-15 16:30N 36°40' E 000°05'30 1.8
2017-Oct-14 23:42N 36°12' W 000°07'0 1.4
2017-Oct-14 23:30N 36°11' W 000°07'2 0.3
2017-Oct-14 17:48N 36°11' W 000°05'0 0.0
2017-Oct-14 17:31N 36°11' W 000°05'0 0.7
2017-Oct-14 16:55N 36°11' W 000°05'2 5.9
2017-Oct-14 16:30N 36°09' W 000°03'4 8.5
2017-Oct-14 16:00N 36°05' W 000°05'4 8.7
2017-Oct-14 15:30N 36°01' W 000°06'  
Track history (hours):
 
Tides and Currents Weather Stations Pressure Air Temp Water Temp Dewpoint Dewpoint Depression Visibility Wind Speed Wind Dir Waves Ship Positions

Lalla Fatma N'soumer

Last reported at 2017-Oct-22 01:32 UTC. Time now 2017-Oct-23 00:38 UTC.
Position N 35°52' W 000°14'.

Length 292 m; draft 9.7 m.

Type: Ship (hazmat cat D). MMSI: 311775000.

Date/timePositionNaut miles runAvg speedWind from/ knotsBaromVisibWave heightAir tempDewpointWater temp
2017-Oct-22 01:32N 35°52' W 000°14'0 0.0
2017-Oct-22 01:26N 35°52' W 000°14'0 0.1
2017-Oct-22 00:58N 35°52' W 000°14'0 0.0
2017-Oct-21 21:25N 35°52' W 000°14'0 0.0
2017-Oct-21 20:50N 35°52' W 000°14'0 0.0
2017-Oct-21 20:20N 35°52' W 000°14'0 0.1
2017-Oct-21 19:59N 35°52' W 000°14'0 0.1
2017-Oct-21 19:20N 35°52' W 000°14'0 0.1
2017-Oct-21 18:56N 35°52' W 000°14'0 0.0
2017-Oct-21 18:22N 35°52' W 000°14'0 0.0
2017-Oct-21 17:56N 35°52' W 000°14'0 0.1
2017-Oct-21 14:38N 35°52' W 000°14'0 0.0
2017-Oct-21 14:13N 35°52' W 000°14'5 0.5
2017-Oct-21 05:27N 35°56' W 000°11'397 7.9
2017-Oct-19 02:56N 41°48' E 003°48'613.1
2017-Oct-19 02:30N 41°52' E 003°52'612.5
2017-Oct-19 02:01N 41°57' E 003°57'712.8
2017-Oct-19 01:29N 42°02' E 004°03'1612.9
2017-Oct-19 00:14N 42°15' E 004°16'413.1
2017-Oct-18 23:57N 42°18' E 004°19'613.3
2017-Oct-18 23:30N 42°23' E 004°24'713.1
2017-Oct-18 22:58N 42°28' E 004°30'713.2
2017-Oct-18 22:27N 42°34' E 004°35'613.5
2017-Oct-18 21:59N 42°39' E 004°40'713.4
2017-Oct-18 21:29N 42°44' E 004°45'613.3
2017-Oct-18 21:00N 42°50' E 004°50'713.5
2017-Oct-18 20:30N 42°55' E 004°56'612.1
2017-Oct-18 20:01N 43°00' E 004°60'611.8
2017-Oct-18 19:30N 43°06' E 005°00'611.5
2017-Oct-18 19:00N 43°12' E 005°00'611.3
2017-Oct-18 18:31N 43°17' E 004°59'5 9.5
2017-Oct-18 18:00N 43°22' E 004°57'3 5.1
2017-Oct-18 17:31N 43°24' E 004°55'1 2.5
2017-Oct-18 16:58N 43°25' E 004°54'0 0.0
2017-Oct-18 16:25N 43°25' E 004°54'0 0.0
2017-Oct-18 15:58N 43°25' E 004°54'0 0.0
2017-Oct-18 15:28N 43°25' E 004°54'0 0.0
2017-Oct-18 14:58N 43°25' E 004°54'0 0.0
2017-Oct-18 13:58N 43°25' E 004°54'0 0.0
2017-Oct-18 13:28N 43°25' E 004°54'0 0.0
2017-Oct-18 12:58N 43°25' E 004°54'0 0.0
2017-Oct-18 12:25N 43°25' E 004°54'0 0.0
2017-Oct-18 11:58N 43°25' E 004°54'0 0.0
2017-Oct-18 11:28N 43°25' E 004°54'0 0.0
2017-Oct-18 10:55N 43°25' E 004°54'0 0.0
2017-Oct-18 10:28N 43°25' E 004°54'0 0.0
2017-Oct-18 09:58N 43°25' E 004°54'0 0.0
2017-Oct-18 09:25N 43°25' E 004°54'0 0.0
2017-Oct-18 08:58N 43°25' E 004°54'0 0.0
2017-Oct-18 08:28N 43°25' E 004°54'0 0.0
2017-Oct-18 07:58N 43°25' E 004°54'0 0.0
2017-Oct-18 07:28N 43°25' E 004°54'0 0.0
2017-Oct-18 06:58N 43°25' E 004°54'0 0.0
2017-Oct-18 06:28N 43°25' E 004°54'0 0.0
2017-Oct-18 05:58N 43°25' E 004°54'0 0.0
2017-Oct-18 05:28N 43°25' E 004°54'0 0.0
2017-Oct-18 04:58N 43°25' E 004°54'0 0.0
2017-Oct-18 04:25N 43°25' E 004°54'0 0.0
2017-Oct-18 03:58N 43°25' E 004°54'0 0.0
2017-Oct-18 03:28N 43°25' E 004°54'0 0.0
2017-Oct-18 02:58N 43°25' E 004°54'0 0.0
2017-Oct-18 02:25N 43°25' E 004°54'0 0.0
2017-Oct-18 01:58N 43°25' E 004°54'0 0.0
2017-Oct-18 01:28N 43°25' E 004°54'0 0.0
2017-Oct-18 00:58N 43°25' E 004°54'0 0.0
2017-Oct-18 00:28N 43°25' E 004°54'0 0.0
2017-Oct-17 23:58N 43°25' E 004°54'0 0.0
2017-Oct-17 23:25N 43°25' E 004°54'0 0.0
2017-Oct-17 22:52N 43°25' E 004°54'0 0.0
2017-Oct-17 22:28N 43°25' E 004°54'0 0.0
2017-Oct-17 21:58N 43°25' E 004°54'0 0.0
2017-Oct-17 21:25N 43°25' E 004°54'0 0.0
2017-Oct-17 20:55N 43°25' E 004°54'0 0.0
2017-Oct-17 20:22N 43°25' E 004°54'0 0.0
2017-Oct-17 19:58N 43°25' E 004°54'0 0.0
2017-Oct-17 19:28N 43°25' E 004°54'0 0.0
2017-Oct-17 18:58N 43°25' E 004°54'0 0.0
2017-Oct-17 18:19N 43°25' E 004°54'0 0.0
2017-Oct-17 18:00N 43°25' E 004°54'0 0.0
2017-Oct-17 17:30N 43°25' E 004°54'0 0.7
2017-Oct-17 17:00N 43°25' E 004°54'2 3.9
2017-Oct-17 16:30N 43°23' E 004°56'4 8.5
2017-Oct-17 16:00N 43°20' E 004°59'3 6.1
2017-Oct-17 15:30N 43°17' E 005°00'3 7.0
2017-Oct-17 15:01N 43°14' E 005°02'4 7.1
2017-Oct-17 14:30N 43°10' E 005°03'3 5.4
2017-Oct-17 14:00N 43°08' E 005°02'3 6.4
2017-Oct-17 13:30N 43°04' E 005°02'3 6.6
2017-Oct-17 13:00N 43°01' E 005°02'3 7.0
2017-Oct-17 12:30N 42°58' E 004°60'4 7.2
2017-Oct-17 12:00N 42°55' E 004°57'4 7.2
2017-Oct-17 11:30N 42°52' E 004°54'4 7.1
2017-Oct-17 11:00N 42°50' E 004°51'4 7.5
2017-Oct-17 10:30N 42°47' E 004°48'4 7.7
2017-Oct-17 10:00N 42°44' E 004°44'5 7.6
2017-Oct-17 09:19N 42°40' E 004°40'2 7.6
2017-Oct-17 09:00N 42°38' E 004°38'4 7.6
2017-Oct-17 08:29N 42°34' E 004°35'4 7.8
2017-Oct-17 08:00N 42°31' E 004°32'4 7.7
2017-Oct-17 07:27N 42°28' E 004°29'4 7.7
2017-Oct-17 06:59N 42°25' E 004°26'13 7.7
2017-Oct-17 05:22N 42°15' E 004°16'5 7.8
2017-Oct-17 04:44N 42°11' E 004°11'2 7.8
2017-Oct-17 04:25N 42°09' E 004°09'12 7.9
2017-Oct-17 02:54N 41°60' E 003°60'7 8.1
2017-Oct-17 01:59N 41°54' E 003°54'10 8.0
2017-Oct-17 00:42N 41°45' E 003°46'29010.4
2017-Oct-15 20:43N 37°38' E 000°29'315.0
2017-Oct-15 20:29N 37°35' E 000°27'715.2
2017-Oct-15 20:00N 37°28' E 000°24'715.0
2017-Oct-15 19:30N 37°21' E 000°21'714.6
2017-Oct-15 19:00N 37°14' E 000°18'714.6
2017-Oct-15 18:30N 37°07' E 000°15'714.4
2017-Oct-15 18:01N 37°00' E 000°13'714.2
2017-Oct-15 17:30N 36°53' E 000°11'713.9
2017-Oct-15 17:01N 36°47' E 000°08'713.9
2017-Oct-15 16:30N 36°40' E 000°05'30 1.8
2017-Oct-14 23:42N 36°12' W 000°07'0 1.4
2017-Oct-14 23:30N 36°11' W 000°07'2 0.3
2017-Oct-14 17:48N 36°11' W 000°05'0 0.0
2017-Oct-14 17:31N 36°11' W 000°05'0 0.7
2017-Oct-14 16:55N 36°11' W 000°05'2 5.9
2017-Oct-14 16:30N 36°09' W 000°03'4 8.5
2017-Oct-14 16:00N 36°05' W 000°05'4 8.7
2017-Oct-14 15:30N 36°01' W 000°06'  

Dump ship's entire track history